createdAt,value
2023-02-23T00:00:13.219Z,1012.49
2023-02-23T00:01:13.295Z,1012.48
2023-02-23T00:02:13.548Z,1012.47
2023-02-23T00:03:13.404Z,1012.46
2023-02-23T00:04:13.545Z,1012.44
2023-02-23T00:05:14.637Z,1012.50
2023-02-23T00:06:13.574Z,1012.54
2023-02-23T00:07:13.476Z,1012.54
2023-02-23T00:08:13.493Z,1012.55
2023-02-23T00:09:14.369Z,1012.53
2023-02-23T00:10:13.336Z,1012.53
2023-02-23T00:11:13.424Z,1012.51
2023-02-23T00:12:13.502Z,1012.51
2023-02-23T00:13:13.623Z,1012.50
2023-02-23T00:14:13.800Z,1012.47
2023-02-23T00:15:13.867Z,1012.49
2023-02-23T00:16:13.941Z,1012.45
2023-02-23T00:17:13.306Z,1012.47
2023-02-23T00:18:14.059Z,1012.45
2023-02-23T00:19:12.954Z,1012.43
2023-02-23T00:20:12.973Z,1012.45
2023-02-23T00:21:13.099Z,1012.46
2023-02-23T00:22:13.057Z,1012.43
2023-02-23T00:23:13.045Z,1012.45
2023-02-23T00:24:13.056Z,1012.44
2023-02-23T00:25:13.607Z,1012.43
2023-02-23T00:26:13.601Z,1012.44
2023-02-23T00:27:13.811Z,1012.43
2023-02-23T00:28:13.797Z,1012.44
2023-02-23T00:29:15.308Z,1012.43
2023-02-23T00:30:13.370Z,1012.43
2023-02-23T00:31:13.616Z,1012.42
2023-02-23T00:32:13.978Z,1012.43
2023-02-23T00:33:13.129Z,1012.39
2023-02-23T00:34:13.535Z,1012.39
2023-02-23T00:35:13.899Z,1012.41
2023-02-23T00:36:13.065Z,1012.42
2023-02-23T00:37:13.107Z,1012.38
2023-02-23T00:38:14.195Z,1012.39
2023-02-23T00:39:13.225Z,1012.42
2023-02-23T00:40:13.206Z,1012.37
2023-02-23T00:41:14.449Z,1012.37
2023-02-23T00:42:13.553Z,1012.35
2023-02-23T00:43:13.570Z,1012.39
2023-02-23T00:44:14.011Z,1012.35
2023-02-23T00:45:13.028Z,1012.36
2023-02-23T00:46:13.220Z,1012.33
2023-02-23T00:47:13.560Z,1012.37
2023-02-23T00:48:13.668Z,1012.37
2023-02-23T00:49:13.874Z,1012.38
2023-02-23T00:50:14.113Z,1012.37
2023-02-23T00:51:13.192Z,1012.36
2023-02-23T00:52:13.182Z,1012.37
2023-02-23T00:53:13.324Z,1012.36
2023-02-23T00:54:13.286Z,1012.36
2023-02-23T00:55:13.300Z,1012.36
2023-02-23T00:56:13.691Z,1012.39
2023-02-23T00:57:13.806Z,1012.39
2023-02-23T00:58:14.174Z,1012.36
2023-02-23T00:59:13.163Z,1012.36
2023-02-23T01:00:13.154Z,1012.37
2023-02-23T01:01:13.725Z,1012.36
2023-02-23T01:02:13.934Z,1012.38
2023-02-23T01:03:13.087Z,1012.41
2023-02-23T01:04:12.989Z,1012.42
2023-02-23T01:05:12.942Z,1012.42
2023-02-23T01:06:13.138Z,1012.40
2023-02-23T01:07:13.309Z,1012.36
2023-02-23T01:08:13.567Z,1012.42
2023-02-23T01:09:13.943Z,1012.39
2023-02-23T01:10:13.010Z,1012.40
2023-02-23T01:11:13.111Z,1012.40
2023-02-23T01:12:13.410Z,1012.39
2023-02-23T01:13:13.550Z,1012.38
2023-02-23T01:14:13.884Z,1012.40
2023-02-23T01:15:19.084Z,1012.40
2023-02-23T01:16:13.107Z,1012.37
2023-02-23T01:17:13.265Z,1012.40
2023-02-23T01:18:13.319Z,1012.37
2023-02-23T01:19:13.408Z,1012.36
2023-02-23T01:20:18.445Z,1012.37
2023-02-23T01:21:13.535Z,1012.38
2023-02-23T01:22:14.089Z,1012.37
2023-02-23T01:23:13.093Z,1012.38
2023-02-23T01:24:13.113Z,1012.39
2023-02-23T01:25:13.323Z,1012.35
2023-02-23T01:26:13.233Z,1012.36
2023-02-23T01:27:13.224Z,1012.33
2023-02-23T01:28:13.333Z,1012.37
2023-02-23T01:29:13.395Z,1012.34
2023-02-23T01:30:15.181Z,1012.38
2023-02-23T01:31:14.007Z,1012.36
2023-02-23T01:32:13.395Z,1012.35
2023-02-23T01:33:13.772Z,1012.36
2023-02-23T01:34:13.805Z,1012.34
2023-02-23T01:35:29.983Z,1012.37
2023-02-23T01:36:13.284Z,1012.37
2023-02-23T01:37:20.607Z,1012.37
2023-02-23T01:38:14.023Z,1012.36
2023-02-23T01:39:13.222Z,1012.37
2023-02-23T01:40:13.571Z,1012.36
2023-02-23T01:41:13.696Z,1012.38
2023-02-23T01:42:13.884Z,1012.37
2023-02-23T01:43:13.085Z,1012.35
2023-02-23T01:44:13.627Z,1012.34
2023-02-23T01:45:13.937Z,1012.33
2023-02-23T01:46:12.966Z,1012.35
2023-02-23T01:47:13.516Z,1012.32
2023-02-23T01:48:13.684Z,1012.34
2023-02-23T01:49:14.654Z,1012.35
2023-02-23T01:50:13.952Z,1012.31
2023-02-23T01:51:13.332Z,1012.31
2023-02-23T01:52:13.768Z,1012.31
2023-02-23T01:53:13.964Z,1012.29
2023-02-23T01:54:13.159Z,1012.29
2023-02-23T01:55:13.603Z,1012.30
2023-02-23T01:56:13.547Z,1012.31
2023-02-23T01:57:13.657Z,1012.30
2023-02-23T01:58:13.830Z,1012.31
2023-02-23T01:59:13.830Z,1012.27
2023-02-23T02:00:14.252Z,1012.32
2023-02-23T02:01:13.340Z,1012.29
2023-02-23T02:02:13.495Z,1012.27
2023-02-23T02:03:13.838Z,1012.26
2023-02-23T02:04:13.872Z,1012.29
2023-02-23T02:05:14.264Z,1012.27
2023-02-23T02:06:13.428Z,1012.24
2023-02-23T02:07:13.783Z,1012.28
2023-02-23T02:08:14.061Z,1012.27
2023-02-23T02:09:12.985Z,1012.26
2023-02-23T02:10:13.090Z,1012.24
2023-02-23T02:11:13.466Z,1012.26
2023-02-23T02:12:13.452Z,1012.25
2023-02-23T02:13:13.417Z,1012.23
2023-02-23T02:14:13.581Z,1012.27
2023-02-23T02:15:13.828Z,1012.27
2023-02-23T02:16:14.058Z,1012.23
2023-02-23T02:17:13.116Z,1012.26
2023-02-23T02:18:13.131Z,1012.23
2023-02-23T02:19:13.173Z,1012.23
2023-02-23T02:20:13.302Z,1012.23
2023-02-23T02:21:13.252Z,1012.24
2023-02-23T02:22:13.318Z,1012.23
2023-02-23T02:23:13.270Z,1012.24
2023-02-23T02:24:13.365Z,1012.26
2023-02-23T02:25:13.687Z,1012.23
2023-02-23T02:26:13.745Z,1012.23
2023-02-23T02:27:13.938Z,1012.24
2023-02-23T02:28:12.952Z,1012.24
2023-02-23T02:29:13.017Z,1012.21
2023-02-23T02:30:12.980Z,1012.22
2023-02-23T02:31:13.031Z,1012.23
2023-02-23T02:32:13.309Z,1012.24
2023-02-23T02:33:13.214Z,1012.22
2023-02-23T02:34:13.364Z,1012.20
2023-02-23T02:35:13.544Z,1012.22
2023-02-23T02:36:13.590Z,1012.20
2023-02-23T02:37:13.591Z,1012.21
2023-02-23T02:38:13.466Z,1012.19
2023-02-23T02:39:13.324Z,1012.19
2023-02-23T02:40:13.852Z,1012.19
2023-02-23T02:41:13.962Z,1012.19
2023-02-23T02:42:13.029Z,1012.14
2023-02-23T02:43:13.433Z,1012.15
2023-02-23T02:44:13.464Z,1012.14
2023-02-23T02:45:13.423Z,1012.11
2023-02-23T02:46:13.506Z,1012.15
2023-02-23T02:47:13.706Z,1012.13
2023-02-23T02:48:13.726Z,1012.15
2023-02-23T02:49:13.815Z,1012.12
2023-02-23T02:50:13.767Z,1012.13
2023-02-23T02:51:14.096Z,1012.10
2023-02-23T02:52:13.418Z,1012.10
2023-02-23T02:53:13.389Z,1012.08
2023-02-23T02:54:13.333Z,1012.08
2023-02-23T02:55:13.331Z,1012.07
2023-02-23T02:56:13.338Z,1012.09
2023-02-23T02:57:13.249Z,1012.07
2023-02-23T02:58:13.609Z,1012.09
2023-02-23T02:59:14.106Z,1012.09
2023-02-23T03:00:13.135Z,1012.08
2023-02-23T03:01:13.142Z,1012.07
2023-02-23T03:02:13.153Z,1012.06
2023-02-23T03:03:13.088Z,1012.05
2023-02-23T03:04:13.117Z,1012.06
2023-02-23T03:05:13.212Z,1012.06
2023-02-23T03:06:13.417Z,1012.05
2023-02-23T03:07:13.321Z,1012.06
2023-02-23T03:08:13.701Z,1012.10
2023-02-23T03:09:13.841Z,1012.06
2023-02-23T03:10:13.827Z,1012.07
2023-02-23T03:11:14.158Z,1012.09
2023-02-23T03:12:13.224Z,1012.09
2023-02-23T03:13:13.531Z,1012.09
2023-02-23T03:14:13.720Z,1012.09
2023-02-23T03:15:13.799Z,1012.10
2023-02-23T03:16:14.802Z,1012.08
2023-02-23T03:17:14.216Z,1012.11
2023-02-23T03:18:13.221Z,1012.10
2023-02-23T03:19:13.286Z,1012.09
2023-02-23T03:20:13.224Z,1012.09
2023-02-23T03:21:13.333Z,1012.05
2023-02-23T03:22:13.665Z,1012.07
2023-02-23T03:23:13.672Z,1012.09
2023-02-23T03:24:13.866Z,1012.07
2023-02-23T03:25:14.131Z,1012.06
2023-02-23T03:26:13.267Z,1012.08
2023-02-23T03:27:13.221Z,1012.07
2023-02-23T03:28:13.263Z,1012.07
2023-02-23T03:29:13.156Z,1012.08
2023-02-23T03:30:13.134Z,1012.09
2023-02-23T03:31:13.168Z,1012.10
2023-02-23T03:32:13.301Z,1012.10
2023-02-23T03:33:13.498Z,1012.11
2023-02-23T03:34:13.434Z,1012.08
2023-02-23T03:35:13.421Z,1012.13
2023-02-23T03:36:13.526Z,1012.11
2023-02-23T03:37:13.470Z,1012.13
2023-02-23T03:38:13.383Z,1012.09
2023-02-23T03:39:13.549Z,1012.12
2023-02-23T03:40:13.750Z,1012.11
2023-02-23T03:41:13.852Z,1012.09
2023-02-23T03:42:14.123Z,1012.13
2023-02-23T03:43:13.308Z,1012.11
2023-02-23T03:44:13.263Z,1012.12
2023-02-23T03:45:13.263Z,1012.09
2023-02-23T03:46:13.182Z,1012.13
2023-02-23T03:47:13.136Z,1012.10
2023-02-23T03:48:13.343Z,1012.12
2023-02-23T03:49:13.399Z,1012.09
2023-02-23T03:50:13.398Z,1012.14
2023-02-23T03:51:13.380Z,1012.14
2023-02-23T03:52:13.787Z,1012.12
2023-02-23T03:53:13.708Z,1012.09
2023-02-23T03:54:13.916Z,1012.13
2023-02-23T03:55:12.902Z,1012.10
2023-02-23T03:56:12.884Z,1012.14
2023-02-23T03:57:12.757Z,1012.12
2023-02-23T03:58:13.603Z,1012.09
2023-02-23T03:59:13.679Z,1012.11
2023-02-23T04:00:13.763Z,1012.12
2023-02-23T04:01:13.677Z,1012.10
2023-02-23T04:02:14.163Z,1012.10
2023-02-23T04:03:13.254Z,1012.09
2023-02-23T04:04:13.177Z,1012.10
2023-02-23T04:05:13.075Z,1012.11
2023-02-23T04:06:13.044Z,1012.10
2023-02-23T04:07:13.051Z,1012.14
2023-02-23T04:08:13.161Z,1012.18
2023-02-23T04:09:13.133Z,1012.15
2023-02-23T04:10:13.081Z,1012.16
2023-02-23T04:11:13.102Z,1012.18
2023-02-23T04:12:13.008Z,1012.16
2023-02-23T04:13:12.926Z,1012.19
2023-02-23T04:14:12.891Z,1012.20
2023-02-23T04:15:12.844Z,1012.15
2023-02-23T04:16:14.044Z,1012.19
2023-02-23T04:17:13.153Z,1012.22
2023-02-23T04:18:13.197Z,1012.21
2023-02-23T04:19:13.428Z,1012.21
2023-02-23T04:20:13.416Z,1012.19
2023-02-23T04:21:13.765Z,1012.19
2023-02-23T04:22:13.890Z,1012.21
2023-02-23T04:23:13.193Z,1012.25
2023-02-23T04:24:13.202Z,1012.21
2023-02-23T04:25:13.143Z,1012.25
2023-02-23T04:26:13.067Z,1012.25
2023-02-23T04:27:13.004Z,1012.25
2023-02-23T04:28:13.005Z,1012.25
2023-02-23T04:29:13.359Z,1012.23
2023-02-23T04:30:13.447Z,1012.28
2023-02-23T04:31:13.780Z,1012.26
2023-02-23T04:32:13.710Z,1012.27
2023-02-23T04:33:14.122Z,1012.29
2023-02-23T04:34:13.242Z,1012.30
2023-02-23T04:35:13.353Z,1012.31
2023-02-23T04:36:13.294Z,1012.33
2023-02-23T04:37:13.647Z,1012.34
2023-02-23T04:38:14.134Z,1012.32
2023-02-23T04:39:17.619Z,1012.37
2023-02-23T04:40:13.701Z,1012.34
2023-02-23T04:41:13.607Z,1012.34
2023-02-23T04:42:13.496Z,1012.39
2023-02-23T04:43:13.498Z,1012.39
2023-02-23T04:44:13.407Z,1012.40
2023-02-23T04:45:13.475Z,1012.40
2023-02-23T04:46:13.541Z,1012.35
2023-02-23T04:47:13.674Z,1012.37
2023-02-23T04:48:13.677Z,1012.36
2023-02-23T04:49:13.676Z,1012.37
2023-02-23T04:50:13.734Z,1012.40
2023-02-23T04:51:13.967Z,1012.38
2023-02-23T04:52:12.799Z,1012.37
2023-02-23T04:53:13.943Z,1012.37
2023-02-23T04:54:13.150Z,1012.40
2023-02-23T04:55:12.981Z,1012.35
2023-02-23T04:56:13.370Z,1012.34
2023-02-23T04:57:13.543Z,1012.35
2023-02-23T04:58:13.700Z,1012.34
2023-02-23T04:59:13.835Z,1012.33
2023-02-23T05:00:13.713Z,1012.38
2023-02-23T05:01:37.306Z,1012.35
2023-02-23T05:02:13.701Z,1012.36
2023-02-23T05:03:13.828Z,1012.34
2023-02-23T05:04:14.054Z,1012.37
2023-02-23T05:05:13.054Z,1012.37
2023-02-23T05:06:12.899Z,1012.37
2023-02-23T05:07:12.941Z,1012.42
2023-02-23T05:08:12.930Z,1012.38
2023-02-23T05:09:12.840Z,1012.42
2023-02-23T05:10:13.774Z,1012.38
2023-02-23T05:11:13.696Z,1012.39
2023-02-23T05:12:13.628Z,1012.39
2023-02-23T05:13:13.524Z,1012.38
2023-02-23T05:14:13.596Z,1012.38
2023-02-23T05:15:13.698Z,1012.40
2023-02-23T05:16:13.797Z,1012.41
2023-02-23T05:17:13.879Z,1012.42
2023-02-23T05:18:14.207Z,1012.39
2023-02-23T05:19:13.369Z,1012.38
2023-02-23T05:20:13.519Z,1012.40
2023-02-23T05:21:13.510Z,1012.45
2023-02-23T05:22:13.338Z,1012.40
2023-02-23T05:23:13.341Z,1012.40
2023-02-23T05:24:13.261Z,1012.41
2023-02-23T05:25:13.764Z,1012.39
2023-02-23T05:26:14.126Z,1012.38
2023-02-23T05:27:13.040Z,1012.40
2023-02-23T05:28:12.928Z,1012.42
2023-02-23T05:29:13.015Z,1012.44
2023-02-23T05:30:12.909Z,1012.41
2023-02-23T05:31:12.950Z,1012.49
2023-02-23T05:32:13.192Z,1012.47
2023-02-23T05:33:13.293Z,1012.49
2023-02-23T05:34:13.391Z,1012.45
2023-02-23T05:35:13.456Z,1012.46
2023-02-23T05:36:14.350Z,1012.49
2023-02-23T05:37:13.687Z,1012.49
2023-02-23T05:38:13.706Z,1012.47
2023-02-23T05:39:15.110Z,1012.50
2023-02-23T05:40:13.360Z,1012.49
2023-02-23T05:41:13.236Z,1012.46
2023-02-23T05:43:00.850Z,1012.47
2023-02-23T05:43:13.420Z,1012.46
2023-02-23T05:44:18.685Z,1012.49
2023-02-23T05:45:13.943Z,1012.49
2023-02-23T05:46:18.230Z,1012.54
2023-02-23T05:47:13.441Z,1012.51
2023-02-23T05:48:13.469Z,1012.51
2023-02-23T05:49:13.587Z,1012.53
2023-02-23T05:50:13.887Z,1012.52
2023-02-23T05:51:13.185Z,1012.50
2023-02-23T05:52:13.117Z,1012.53
2023-02-23T05:53:13.744Z,1012.51
2023-02-23T05:54:18.762Z,1012.52
2023-02-23T05:55:13.745Z,1012.52
2023-02-23T05:56:13.733Z,1012.52
2023-02-23T05:57:13.940Z,1012.50
2023-02-23T05:58:12.886Z,1012.49
2023-02-23T05:59:13.281Z,1012.52
2023-02-23T06:00:13.287Z,1012.55
2023-02-23T06:01:13.350Z,1012.54
2023-02-23T06:02:13.437Z,1012.54
2023-02-23T06:03:13.752Z,1012.54
2023-02-23T06:04:13.957Z,1012.58
2023-02-23T06:05:12.939Z,1012.56
2023-02-23T06:06:13.208Z,1012.58
2023-02-23T06:07:13.308Z,1012.58
2023-02-23T06:08:13.411Z,1012.54
2023-02-23T06:09:13.602Z,1012.58
2023-02-23T06:10:13.536Z,1012.62
2023-02-23T06:11:13.739Z,1012.59
2023-02-23T06:12:13.648Z,1012.57
2023-02-23T06:13:13.653Z,1012.58
2023-02-23T06:14:13.709Z,1012.58
2023-02-23T06:15:13.694Z,1012.59
2023-02-23T06:16:13.830Z,1012.62
2023-02-23T06:17:13.021Z,1012.64
2023-02-23T06:18:12.923Z,1012.60
2023-02-23T06:19:14.091Z,1012.66
2023-02-23T06:20:13.021Z,1012.64
2023-02-23T06:21:12.977Z,1012.63
2023-02-23T06:22:13.145Z,1012.66
2023-02-23T06:23:13.154Z,1012.65
2023-02-23T06:24:13.077Z,1012.68
2023-02-23T06:25:13.178Z,1012.70
2023-02-23T06:26:13.109Z,1012.66
2023-02-23T06:27:12.968Z,1012.67
2023-02-23T06:28:13.066Z,1012.71
2023-02-23T06:29:14.029Z,1012.70
2023-02-23T06:30:12.979Z,1012.73
2023-02-23T06:31:12.934Z,1012.77
2023-02-23T06:32:13.058Z,1012.70
2023-02-23T06:33:13.233Z,1012.75
2023-02-23T06:34:13.382Z,1012.74
2023-02-23T06:35:13.258Z,1012.76
2023-02-23T06:36:13.228Z,1012.75
2023-02-23T06:37:13.058Z,1012.79
2023-02-23T06:38:12.992Z,1012.79
2023-02-23T06:39:13.127Z,1012.79
2023-02-23T06:40:13.209Z,1012.80
2023-02-23T06:41:13.639Z,1012.83
2023-02-23T06:42:13.674Z,1012.81
2023-02-23T06:43:14.815Z,1012.82
2023-02-23T06:44:13.985Z,1012.83
2023-02-23T06:45:13.275Z,1012.85
2023-02-23T06:46:13.406Z,1012.86
2023-02-23T06:47:13.442Z,1012.85
2023-02-23T06:48:13.483Z,1012.89
2023-02-23T06:49:16.185Z,1012.88
2023-02-23T06:50:13.615Z,1012.92
2023-02-23T06:51:13.702Z,1012.93
2023-02-23T06:52:13.788Z,1012.95
2023-02-23T06:53:14.071Z,1012.95
2023-02-23T06:54:13.128Z,1012.95
2023-02-23T06:55:13.062Z,1013.00
2023-02-23T06:56:13.323Z,1013.01
2023-02-23T06:57:13.794Z,1012.96
2023-02-23T06:58:13.693Z,1013.01
2023-02-23T06:59:13.936Z,1013.01
2023-02-23T07:00:12.843Z,1013.01
2023-02-23T07:01:14.081Z,1013.04
2023-02-23T07:02:13.047Z,1013.04
2023-02-23T07:03:13.267Z,1013.01
2023-02-23T07:04:16.235Z,1013.06
2023-02-23T07:05:14.001Z,1013.04
2023-02-23T07:06:12.949Z,1013.04
2023-02-23T07:07:13.371Z,1013.05
2023-02-23T07:08:13.430Z,1013.04
2023-02-23T07:09:13.380Z,1013.07
2023-02-23T07:10:13.325Z,1013.07
2023-02-23T07:11:13.457Z,1013.11
2023-02-23T07:12:13.873Z,1013.10
2023-02-23T07:13:13.702Z,1013.15
2023-02-23T07:14:21.484Z,1013.14
2023-02-23T07:15:13.247Z,1013.12
2023-02-23T07:16:13.300Z,1013.17
2023-02-23T07:17:13.366Z,1013.15
2023-02-23T07:18:13.278Z,1013.17
2023-02-23T07:19:13.306Z,1013.16
2023-02-23T07:20:13.337Z,1013.20
2023-02-23T07:21:13.315Z,1013.21
2023-02-23T07:22:13.303Z,1013.20
2023-02-23T07:23:13.281Z,1013.20
2023-02-23T07:24:13.769Z,1013.22
2023-02-23T07:25:13.962Z,1013.24
2023-02-23T07:26:13.009Z,1013.23
2023-02-23T07:27:13.272Z,1013.25
2023-02-23T07:28:38.097Z,1013.23
2023-02-23T07:29:13.600Z,1013.26
2023-02-23T07:30:13.626Z,1013.23
2023-02-23T07:31:13.797Z,1013.27
2023-02-23T07:32:14.058Z,1013.27
2023-02-23T07:33:18.093Z,1013.29
2023-02-23T07:34:13.173Z,1013.29
2023-02-23T07:35:13.204Z,1013.29
2023-02-23T07:36:13.345Z,1013.29
2023-02-23T07:37:13.647Z,1013.27
2023-02-23T07:38:13.667Z,1013.28
2023-02-23T07:39:13.964Z,1013.33
2023-02-23T07:40:13.089Z,1013.33
2023-02-23T07:41:13.022Z,1013.35
2023-02-23T07:43:14.339Z,1013.32
2023-02-23T07:44:13.495Z,1013.33
2023-02-23T07:45:13.610Z,1013.32
2023-02-23T07:46:13.644Z,1013.31
2023-02-23T07:47:13.682Z,1013.35
2023-02-23T07:48:13.885Z,1013.36
2023-02-23T07:49:13.119Z,1013.39
2023-02-23T07:50:13.342Z,1013.39
2023-02-23T07:51:13.658Z,1013.38
2023-02-23T07:52:13.530Z,1013.38
2023-02-23T07:53:13.938Z,1013.41
2023-02-23T07:54:12.980Z,1013.40
2023-02-23T07:55:13.813Z,1013.39
2023-02-23T07:56:14.119Z,1013.45
2023-02-23T07:57:13.442Z,1013.44
2023-02-23T07:58:13.343Z,1013.45
2023-02-23T07:59:54.641Z,1013.48
2023-02-23T08:00:13.316Z,1013.52
2023-02-23T08:01:13.416Z,1013.52
2023-02-23T08:02:13.526Z,1013.51
2023-02-23T08:03:13.820Z,1013.53
2023-02-23T08:04:14.073Z,1013.51
2023-02-23T08:05:14.507Z,1013.57
2023-02-23T08:06:14.154Z,1013.52
2023-02-23T08:07:13.436Z,1013.59
2023-02-23T08:08:13.604Z,1013.57
2023-02-23T08:09:13.651Z,1013.55
2023-02-23T08:10:13.656Z,1013.56
2023-02-23T08:11:13.919Z,1013.59
2023-02-23T08:12:50.698Z,1013.58
2023-02-23T08:13:14.139Z,1013.55
2023-02-23T08:14:13.270Z,1013.56
2023-02-23T08:15:13.393Z,1013.60
2023-02-23T08:16:13.465Z,1013.59
2023-02-23T08:17:13.844Z,1013.60
2023-02-23T08:18:13.941Z,1013.56
2023-02-23T08:19:13.149Z,1013.62
2023-02-23T08:20:13.430Z,1013.63
2023-02-23T08:21:13.533Z,1013.62
2023-02-23T08:22:13.544Z,1013.62
2023-02-23T08:23:23.701Z,1013.66
2023-02-23T08:24:13.803Z,1013.66
2023-02-23T08:25:18.883Z,1013.70
2023-02-23T08:26:15.531Z,1013.69
2023-02-23T08:27:13.945Z,1013.69
2023-02-23T08:28:13.032Z,1013.68
2023-02-23T08:29:13.161Z,1013.66
2023-02-23T08:30:25.631Z,1013.70
2023-02-23T08:31:14.421Z,1013.71
2023-02-23T08:32:13.636Z,1013.72
2023-02-23T08:33:14.194Z,1013.72
2023-02-23T08:34:13.401Z,1013.73
2023-02-23T08:35:13.508Z,1013.73
2023-02-23T08:36:13.518Z,1013.75
2023-02-23T08:37:13.564Z,1013.75
2023-02-23T08:38:13.954Z,1013.78
2023-02-23T08:39:13.281Z,1013.80
2023-02-23T08:40:13.353Z,1013.83
2023-02-23T08:41:13.395Z,1013.78
2023-02-23T08:42:13.682Z,1013.83
2023-02-23T08:43:13.732Z,1013.82
2023-02-23T08:44:13.832Z,1013.79
2023-02-23T08:45:27.343Z,1013.79
2023-02-23T08:46:13.445Z,1013.85
2023-02-23T08:47:13.677Z,1013.81
2023-02-23T08:48:13.824Z,1013.84
2023-02-23T08:49:13.857Z,1013.83
2023-02-23T08:50:14.070Z,1013.88
2023-02-23T08:51:13.184Z,1013.83
2023-02-23T08:52:18.283Z,1013.87
2023-02-23T08:53:13.269Z,1013.87
2023-02-23T08:54:13.287Z,1013.88
2023-02-23T08:55:13.261Z,1013.91
2023-02-23T08:56:13.579Z,1013.92
2023-02-23T08:57:43.840Z,1013.92
2023-02-23T08:58:13.864Z,1013.90
2023-02-23T08:59:14.183Z,1013.92
2023-02-23T09:00:13.588Z,1013.93
2023-02-23T09:01:13.745Z,1013.92
2023-02-23T09:02:13.891Z,1013.94
2023-02-23T09:03:12.885Z,1013.94
2023-02-23T09:04:14.105Z,1013.93
2023-02-23T09:05:13.339Z,1013.97
2023-02-23T09:06:13.887Z,1013.94
2023-02-23T09:07:13.262Z,1013.93
2023-02-23T09:08:13.673Z,1013.94
2023-02-23T09:09:14.572Z,1013.97
2023-02-23T09:10:13.706Z,1014.00
2023-02-23T09:11:13.932Z,1013.98
2023-02-23T09:12:13.095Z,1013.98
2023-02-23T09:13:13.163Z,1013.99
2023-02-23T09:14:13.217Z,1014.00
2023-02-23T09:15:13.211Z,1014.00
2023-02-23T09:16:27.258Z,1014.01
2023-02-23T09:17:13.676Z,1014.03
2023-02-23T09:18:13.931Z,1013.99
2023-02-23T09:19:12.893Z,1014.04
2023-02-23T09:20:13.420Z,1014.10
2023-02-23T09:21:13.536Z,1014.08
2023-02-23T09:22:13.560Z,1014.05
2023-02-23T09:23:13.563Z,1014.04
2023-02-23T09:24:13.728Z,1014.09
2023-02-23T09:25:14.252Z,1014.10
2023-02-23T09:26:13.392Z,1014.10
2023-02-23T09:27:13.693Z,1014.08
2023-02-23T09:28:13.947Z,1014.10
2023-02-23T09:29:13.201Z,1014.11
2023-02-23T09:30:13.315Z,1014.11
2023-02-23T09:31:13.695Z,1014.09
2023-02-23T09:32:13.217Z,1014.10
2023-02-23T09:33:23.448Z,1014.10
2023-02-23T09:34:13.496Z,1014.13
2023-02-23T09:35:13.760Z,1014.11
2023-02-23T09:36:13.741Z,1014.10
2023-02-23T09:37:13.585Z,1014.10
2023-02-23T09:38:13.581Z,1014.13
2023-02-23T09:39:13.756Z,1014.12
2023-02-23T09:40:14.211Z,1014.15
2023-02-23T09:41:18.362Z,1014.18
2023-02-23T09:42:13.601Z,1014.16
2023-02-23T09:43:13.907Z,1014.21
2023-02-23T09:44:12.791Z,1014.19
2023-02-23T09:45:13.776Z,1014.18
2023-02-23T09:46:14.239Z,1014.21
2023-02-23T09:47:13.249Z,1014.25
2023-02-23T09:48:13.228Z,1014.21
2023-02-23T09:49:13.222Z,1014.24
2023-02-23T09:50:23.219Z,1014.23
2023-02-23T09:51:13.677Z,1014.24
2023-02-23T09:52:14.104Z,1014.23
2023-02-23T09:53:13.237Z,1014.25
2023-02-23T09:54:52.704Z,1014.23
2023-02-23T09:55:12.990Z,1014.24
2023-02-23T09:56:13.239Z,1014.28
2023-02-23T09:57:13.102Z,1014.24
2023-02-23T09:59:13.206Z,1014.31
2023-02-23T10:00:27.998Z,1014.31
2023-02-23T10:01:14.688Z,1014.28
2023-02-23T10:02:13.853Z,1014.26
2023-02-23T10:03:13.965Z,1014.28
2023-02-23T10:04:56.974Z,1014.27
2023-02-23T10:05:13.468Z,1014.32
2023-02-23T10:06:31.527Z,1014.30
2023-02-23T10:07:13.861Z,1014.29
2023-02-23T10:08:14.422Z,1014.31
2023-02-23T10:09:13.340Z,1014.29
2023-02-23T10:11:13.372Z,1014.29
2023-02-23T10:12:13.797Z,1014.35
2023-02-23T10:13:14.043Z,1014.35
2023-02-23T10:14:13.132Z,1014.37
2023-02-23T10:15:13.071Z,1014.33
2023-02-23T10:16:13.187Z,1014.36
2023-02-23T10:17:13.200Z,1014.36
2023-02-23T10:18:13.240Z,1014.41
2023-02-23T10:19:13.350Z,1014.41
2023-02-23T10:20:13.392Z,1014.37
2023-02-23T10:21:13.377Z,1014.39
2023-02-23T10:22:13.623Z,1014.39
2023-02-23T10:24:38.035Z,1014.42
2023-02-23T10:25:14.502Z,1014.44
2023-02-23T10:26:14.898Z,1014.49
2023-02-23T10:27:12.708Z,1014.46
2023-02-23T10:28:13.809Z,1014.48
2023-02-23T10:29:14.022Z,1014.48
2023-02-23T10:30:13.245Z,1014.49
2023-02-23T10:31:23.626Z,1014.49
2023-02-23T10:32:18.426Z,1014.44
2023-02-23T10:33:13.547Z,1014.48
2023-02-23T10:34:13.728Z,1014.46
2023-02-23T10:35:13.852Z,1014.49
2023-02-23T10:36:27.909Z,1014.52
2023-02-23T10:37:12.993Z,1014.48
2023-02-23T10:38:13.001Z,1014.50
2023-02-23T10:39:13.483Z,1014.47
2023-02-23T10:40:13.580Z,1014.47
2023-02-23T10:41:14.987Z,1014.50
2023-02-23T10:43:13.450Z,1014.46
2023-02-23T10:44:17.043Z,1014.50
2023-02-23T10:45:13.408Z,1014.49
2023-02-23T10:46:24.350Z,1014.49
2023-02-23T10:47:20.240Z,1014.47
2023-02-23T10:48:13.241Z,1014.49
2023-02-23T10:49:22.881Z,1014.49
2023-02-23T10:50:13.025Z,1014.51
2023-02-23T10:52:13.095Z,1014.54
2023-02-23T10:53:13.352Z,1014.55
2023-02-23T10:54:13.868Z,1014.52
2023-02-23T10:55:12.855Z,1014.56
2023-02-23T10:56:14.026Z,1014.54
2023-02-23T10:57:14.252Z,1014.54
2023-02-23T10:58:37.890Z,1014.56
2023-02-23T10:59:23.130Z,1014.55
2023-02-23T11:00:13.145Z,1014.51
2023-02-23T11:01:13.204Z,1014.53
2023-02-23T11:02:33.485Z,1014.58
2023-02-23T11:03:13.497Z,1014.55
2023-02-23T11:04:50.608Z,1014.54
2023-02-23T11:05:14.227Z,1014.54
2023-02-23T11:06:31.069Z,1014.53
2023-02-23T11:07:14.083Z,1014.55
2023-02-23T11:08:14.033Z,1014.56
2023-02-23T11:09:13.690Z,1014.51
2023-02-23T11:10:18.883Z,1014.52
2023-02-23T11:11:45.923Z,1014.48
2023-02-23T11:12:12.978Z,1014.54
2023-02-23T11:13:13.006Z,1014.54
2023-02-23T11:14:13.242Z,1014.51
2023-02-23T11:15:13.338Z,1014.52
2023-02-23T11:16:23.975Z,1014.51
2023-02-23T11:17:13.031Z,1014.56
2023-02-23T11:19:13.650Z,1014.59
2023-02-23T11:20:13.570Z,1014.61
2023-02-23T11:21:17.968Z,1014.58
2023-02-23T11:22:26.696Z,1014.60
2023-02-23T11:23:14.978Z,1014.61
2023-02-23T11:24:13.831Z,1014.59
2023-02-23T11:25:15.030Z,1014.58
2023-02-23T11:26:13.135Z,1014.62
2023-02-23T11:27:13.503Z,1014.60
2023-02-23T11:28:16.414Z,1014.56
2023-02-23T11:29:13.728Z,1014.58
2023-02-23T11:30:13.872Z,1014.59
2023-02-23T11:31:41.026Z,1014.60
2023-02-23T11:32:13.359Z,1014.62
2023-02-23T11:33:18.614Z,1014.59
2023-02-23T11:34:13.697Z,1014.55
2023-02-23T11:35:14.066Z,1014.57
2023-02-23T11:36:13.182Z,1014.56
2023-02-23T11:37:13.122Z,1014.54
2023-02-23T11:39:28.865Z,1014.55
2023-02-23T11:40:14.034Z,1014.55
2023-02-23T11:41:13.262Z,1014.54
2023-02-23T11:42:13.399Z,1014.51
2023-02-23T11:43:13.531Z,1014.53
2023-02-23T11:44:13.614Z,1014.52
2023-02-23T11:45:13.663Z,1014.51
2023-02-23T11:46:13.603Z,1014.52
2023-02-23T11:47:13.974Z,1014.50
2023-02-23T11:48:14.879Z,1014.53
2023-02-23T11:49:30.061Z,1014.49
2023-02-23T11:50:13.003Z,1014.53
2023-02-23T11:51:15.320Z,1014.53
2023-02-23T11:52:13.295Z,1014.50
2023-02-23T11:53:13.248Z,1014.54
2023-02-23T11:55:13.804Z,1014.57
2023-02-23T11:56:13.933Z,1014.57
2023-02-23T11:57:12.910Z,1014.55
2023-02-23T11:58:13.249Z,1014.52
2023-02-23T11:59:13.338Z,1014.57
2023-02-23T12:00:13.482Z,1014.56
2023-02-23T12:01:13.772Z,1014.55
2023-02-23T12:02:14.165Z,1014.55
2023-02-23T12:03:19.856Z,1014.55
2023-02-23T12:04:24.851Z,1014.60
2023-02-23T12:05:13.843Z,1014.56
2023-02-23T12:06:13.880Z,1014.58
2023-02-23T12:07:51.030Z,1014.56
2023-02-23T12:08:12.971Z,1014.55
2023-02-23T12:09:13.251Z,1014.55
2023-02-23T12:10:13.642Z,1014.56
2023-02-23T12:11:13.897Z,1014.54
2023-02-23T12:12:12.983Z,1014.54
2023-02-23T12:13:13.060Z,1014.51
2023-02-23T12:14:46.489Z,1014.53